createdAt,value
2017-09-30T00:00:03.986Z,32.6
2017-09-30T00:01:04.741Z,34.8
2017-09-30T00:02:05.471Z,35.6
2017-09-30T00:03:06.608Z,37.9
2017-09-30T00:04:07.382Z,38.2
2017-09-30T00:05:08.115Z,39.1
2017-09-30T00:06:08.878Z,38.8
2017-09-30T00:07:09.602Z,40.8
2017-09-30T00:08:10.733Z,41.3
2017-09-30T00:09:11.533Z,40.9
2017-09-30T00:10:12.272Z,41.9
2017-09-30T00:11:13.009Z,40.6
2017-09-30T00:12:13.774Z,40.0
2017-09-30T00:13:14.623Z,41.4
2017-09-30T00:14:15.346Z,41.5
2017-09-30T00:15:16.086Z,41.1
2017-09-30T00:16:17.141Z,42.0
2017-09-30T00:17:17.934Z,42.4
2017-09-30T00:18:18.731Z,39.5
2017-09-30T00:19:19.470Z,46.5
2017-09-30T00:20:20.210Z,48.1
2017-09-30T00:21:21.346Z,48.9
2017-09-30T00:22:22.164Z,49.4
2017-09-30T00:23:22.923Z,52.4
2017-09-30T00:24:23.652Z,53.4
2017-09-30T00:25:24.384Z,54.3
2017-09-30T00:26:25.219Z,53.6
2017-09-30T00:27:26.194Z,54.8
2017-09-30T00:28:27.006Z,55.8
2017-09-30T00:29:27.740Z,58.2
2017-09-30T00:30:28.470Z,58.9
2017-09-30T00:31:29.215Z,63.3
2017-09-30T00:32:29.959Z,56.4
2017-09-30T00:33:31.030Z,59.3
2017-09-30T00:34:31.812Z,61.8
2017-09-30T00:35:32.621Z,68.9
2017-09-30T00:36:33.360Z,68.4
2017-09-30T00:37:34.111Z,65.4
2017-09-30T00:38:34.830Z,68.5
2017-09-30T00:39:35.909Z,65.8
2017-09-30T00:40:36.642Z,56.7
2017-09-30T00:41:37.390Z,56.9
2017-09-30T00:42:38.124Z,57.9
2017-09-30T00:43:38.860Z,57.2
2017-09-30T00:44:39.680Z,73.6
2017-09-30T00:45:40.819Z,59.5
2017-09-30T00:46:41.559Z,63.3
2017-09-30T00:47:42.289Z,58.0
2017-09-30T00:48:43.039Z,58.0
2017-09-30T00:49:43.784Z,62.3
2017-09-30T00:50:44.964Z,63.1
2017-09-30T00:51:45.743Z,66.3
2017-09-30T00:52:46.482Z,75.9
2017-09-30T00:53:47.226Z,83.2
2017-09-30T00:54:48.047Z,73.7
2017-09-30T00:55:48.809Z,70.8
2017-09-30T00:56:49.539Z,76.6
2017-09-30T00:57:50.681Z,76.0
2017-09-30T00:58:51.511Z,75.5
2017-09-30T00:59:52.278Z,71.7
2017-09-30T01:00:53.019Z,69.4
2017-09-30T01:01:53.753Z,75.1
2017-09-30T01:02:54.689Z,75.7
2017-09-30T01:03:55.427Z,76.5
2017-09-30T01:04:56.214Z,81.2
2017-09-30T01:05:56.949Z,88.8
2017-09-30T01:06:57.689Z,108.1
2017-09-30T01:07:58.828Z,90.0
2017-09-30T01:08:59.562Z,74.0
2017-09-30T01:10:00.299Z,86.3
2017-09-30T01:11:01.019Z,73.6
2017-09-30T01:12:01.767Z,66.9
2017-09-30T01:13:02.853Z,64.3
2017-09-30T01:14:03.642Z,72.1
2017-09-30T01:15:04.453Z,77.7
2017-09-30T01:16:05.235Z,60.6
2017-09-30T01:17:06.030Z,62.3
2017-09-30T01:18:06.759Z,62.1
2017-09-30T01:19:07.492Z,62.3
2017-09-30T01:20:08.233Z,66.8
2017-09-30T01:21:09.030Z,70.5
2017-09-30T01:22:10.255Z,76.9
2017-09-30T01:23:11.019Z,75.5
2017-09-30T01:24:11.760Z,73.9
2017-09-30T01:25:12.500Z,73.4
2017-09-30T01:26:13.313Z,84.4
2017-09-30T01:27:14.454Z,87.3
2017-09-30T01:28:15.246Z,95.7
2017-09-30T01:29:16.023Z,58.8
2017-09-30T01:30:16.813Z,45.5
2017-09-30T01:31:17.557Z,49.6
2017-09-30T01:32:18.598Z,52.0
2017-09-30T01:33:19.405Z,56.6
2017-09-30T01:34:21.308Z,62.1
2017-09-30T01:35:22.996Z,72.4
2017-09-30T01:36:23.676Z,70.5
2017-09-30T01:37:24.409Z,61.4
2017-09-30T01:38:25.130Z,58.8
2017-09-30T01:39:25.864Z,64.2
2017-09-30T01:40:26.651Z,63.0
2017-09-30T01:41:27.391Z,60.8
2017-09-30T01:42:28.425Z,72.2
2017-09-30T01:43:29.233Z,65.8
2017-09-30T01:44:30.051Z,71.6
2017-09-30T01:45:30.847Z,65.3
2017-09-30T01:46:31.655Z,59.5
2017-09-30T01:47:32.790Z,76.7
2017-09-30T01:48:33.523Z,58.8
2017-09-30T01:49:34.331Z,62.3
2017-09-30T01:50:35.067Z,65.9
2017-09-30T01:51:35.862Z,62.9
2017-09-30T01:52:37.056Z,65.8
2017-09-30T01:53:37.791Z,64.6
2017-09-30T01:54:38.521Z,63.8
2017-09-30T01:55:39.250Z,70.9
2017-09-30T01:56:39.990Z,68.0
2017-09-30T01:57:41.015Z,62.2
2017-09-30T01:58:41.745Z,66.8
2017-09-30T01:59:42.493Z,69.5
2017-09-30T02:00:43.280Z,64.8
2017-09-30T02:01:44.045Z,53.7
2017-09-30T02:02:45.152Z,67.1
2017-09-30T02:03:45.900Z,63.2
2017-09-30T02:04:46.632Z,68.0
2017-09-30T02:05:47.459Z,69.6
2017-09-30T02:06:48.274Z,63.1
2017-09-30T02:07:49.251Z,66.1
2017-09-30T02:08:50.000Z,68.1
2017-09-30T02:09:50.788Z,72.6
2017-09-30T02:10:51.512Z,71.0
2017-09-30T02:11:52.273Z,71.7
2017-09-30T02:12:53.432Z,74.9
2017-09-30T02:13:54.161Z,70.0
2017-09-30T02:14:54.895Z,72.5
2017-09-30T02:15:55.692Z,70.7
2017-09-30T02:16:56.445Z,59.2
2017-09-30T02:17:57.213Z,58.9
2017-09-30T02:18:58.280Z,62.2
2017-09-30T02:19:59.093Z,66.4
2017-09-30T02:20:59.902Z,64.2
2017-09-30T02:22:00.631Z,70.0
2017-09-30T02:23:01.364Z,66.6
2017-09-30T02:24:02.352Z,61.8
2017-09-30T02:25:03.081Z,68.8
2017-09-30T02:26:03.813Z,70.9
2017-09-30T02:27:04.599Z,71.4
2017-09-30T02:28:05.322Z,62.7
2017-09-30T02:29:06.061Z,66.6
2017-09-30T02:30:07.104Z,72.3
2017-09-30T02:31:07.832Z,79.3
2017-09-30T02:32:08.631Z,81.3
2017-09-30T02:33:09.365Z,76.6
2017-09-30T02:34:10.106Z,83.4
2017-09-30T02:35:11.034Z,85.0
2017-09-30T02:36:11.830Z,76.4
2017-09-30T02:37:12.569Z,77.0
2017-09-30T02:38:13.308Z,84.1
2017-09-30T02:39:14.101Z,85.0
2017-09-30T02:40:15.034Z,84.5
2017-09-30T02:41:15.746Z,90.9
2017-09-30T02:42:16.480Z,86.9
2017-09-30T02:43:17.221Z,87.9
2017-09-30T02:44:17.960Z,84.1
2017-09-30T02:45:19.087Z,93.7
2017-09-30T02:46:19.822Z,88.7
2017-09-30T02:47:20.569Z,84.5
2017-09-30T02:48:21.309Z,85.8
2017-09-30T02:49:22.044Z,87.8
2017-09-30T02:50:22.980Z,86.3
2017-09-30T02:51:23.721Z,91.1
2017-09-30T02:52:24.461Z,99.1
2017-09-30T02:53:25.270Z,97.5
2017-09-30T02:54:26.008Z,88.8
2017-09-30T02:55:27.219Z,91.2
2017-09-30T02:56:27.951Z,92.4
2017-09-30T02:57:28.778Z,87.2
2017-09-30T02:58:29.519Z,91.1
2017-09-30T02:59:30.260Z,111.8
2017-09-30T03:00:31.280Z,118.3
2017-09-30T03:01:32.022Z,103.0
2017-09-30T03:02:32.812Z,104.9
2017-09-30T03:03:33.620Z,94.3
2017-09-30T03:04:34.416Z,106.8
2017-09-30T03:05:35.403Z,102.8
2017-09-30T03:06:36.211Z,121.9
2017-09-30T03:07:37.029Z,85.4
2017-09-30T03:08:37.760Z,81.6
2017-09-30T03:09:38.498Z,90.8
2017-09-30T03:10:39.601Z,88.0
2017-09-30T03:11:40.320Z,84.2
2017-09-30T03:12:41.050Z,89.5
2017-09-30T03:13:41.789Z,83.8
2017-09-30T03:14:42.554Z,86.9
2017-09-30T03:15:43.732Z,94.1
2017-09-30T03:16:44.508Z,109.1
2017-09-30T03:17:45.250Z,90.0
2017-09-30T03:18:45.987Z,82.0
2017-09-30T03:19:46.789Z,80.6
2017-09-30T03:20:47.782Z,79.3
2017-09-30T03:21:48.599Z,83.9
2017-09-30T03:22:49.328Z,82.3
2017-09-30T03:23:50.062Z,81.5
2017-09-30T03:24:50.789Z,81.0
2017-09-30T03:25:51.919Z,84.8
2017-09-30T03:26:52.744Z,89.9
2017-09-30T03:27:53.547Z,90.3
2017-09-30T03:28:54.304Z,89.8
2017-09-30T03:29:55.079Z,85.3
2017-09-30T03:30:56.117Z,83.1
2017-09-30T03:31:56.838Z,86.2
2017-09-30T03:32:57.580Z,83.8
2017-09-30T03:33:58.308Z,91.3
2017-09-30T03:34:59.053Z,85.9
2017-09-30T03:36:00.094Z,87.2
2017-09-30T03:37:00.819Z,93.2
2017-09-30T03:38:01.552Z,104.4
2017-09-30T03:39:02.351Z,92.7
2017-09-30T03:40:03.165Z,89.1
2017-09-30T03:41:04.320Z,88.1
2017-09-30T03:42:05.090Z,106.2
2017-09-30T03:43:05.891Z,114.9
2017-09-30T03:44:06.629Z,116.1
2017-09-30T03:45:07.369Z,124.2
2017-09-30T03:46:08.459Z,124.6
2017-09-30T03:47:09.189Z,132.4
2017-09-30T03:48:10.009Z,139.2
2017-09-30T03:49:10.739Z,128.1
2017-09-30T03:50:11.470Z,116.4
2017-09-30T03:51:12.678Z,113.8
2017-09-30T03:52:13.416Z,117.7
2017-09-30T03:53:14.223Z,145.2
2017-09-30T03:54:14.983Z,164.5
2017-09-30T03:55:15.718Z,181.5
2017-09-30T03:56:16.852Z,126.3
2017-09-30T03:57:17.580Z,142.1
2017-09-30T03:58:18.344Z,122.8
2017-09-30T03:59:19.131Z,85.8
2017-09-30T04:00:19.860Z,65.6
2017-09-30T04:01:20.979Z,47.8
2017-09-30T04:02:21.737Z,42.4
2017-09-30T04:03:22.451Z,48.7
2017-09-30T04:04:23.277Z,40.4
2017-09-30T04:05:24.021Z,43.8
2017-09-30T04:06:25.124Z,40.6
2017-09-30T04:07:25.839Z,42.3
2017-09-30T04:08:26.575Z,45.1
2017-09-30T04:09:27.371Z,41.0
2017-09-30T04:10:28.191Z,38.4
2017-09-30T04:11:29.396Z,40.3
2017-09-30T04:12:30.130Z,36.5
2017-09-30T04:13:30.952Z,41.9
2017-09-30T04:14:31.760Z,44.3
2017-09-30T04:15:32.492Z,42.4
2017-09-30T04:16:33.418Z,43.5
2017-09-30T04:17:34.181Z,40.7
2017-09-30T04:18:34.933Z,54.8
2017-09-30T04:19:35.662Z,51.1
2017-09-30T04:20:36.401Z,53.9
2017-09-30T04:21:37.440Z,58.8
2017-09-30T04:22:38.192Z,62.6
2017-09-30T04:23:38.912Z,58.9
2017-09-30T04:24:39.725Z,62.1
2017-09-30T04:25:40.522Z,68.0
2017-09-30T04:26:41.511Z,72.6
2017-09-30T04:27:42.251Z,68.4
2017-09-30T04:28:43.000Z,74.9
2017-09-30T04:29:43.792Z,78.5
2017-09-30T04:30:44.524Z,87.2
2017-09-30T04:31:45.331Z,86.8
2017-09-30T04:32:46.081Z,65.6
2017-09-30T04:33:46.811Z,71.2
2017-09-30T04:34:47.558Z,75.0
2017-09-30T04:35:48.283Z,65.4
2017-09-30T04:36:49.419Z,57.9
2017-09-30T04:37:50.202Z,62.5
2017-09-30T04:38:50.944Z,57.1
2017-09-30T04:39:51.764Z,63.1
2017-09-30T04:40:52.571Z,70.7
2017-09-30T04:41:53.614Z,69.9
2017-09-30T04:42:54.422Z,67.1
2017-09-30T04:43:55.161Z,67.4
2017-09-30T04:44:55.912Z,66.6
2017-09-30T04:45:56.651Z,68.1
2017-09-30T04:46:57.692Z,61.7
2017-09-30T04:47:58.431Z,61.3
2017-09-30T04:48:59.163Z,66.3
2017-09-30T04:49:59.901Z,68.1
2017-09-30T04:51:00.640Z,63.5
2017-09-30T04:52:01.381Z,66.3
2017-09-30T04:53:02.113Z,58.8
2017-09-30T04:54:03.251Z,63.0
2017-09-30T04:55:03.982Z,62.5
2017-09-30T04:56:04.732Z,64.7
2017-09-30T04:57:05.529Z,67.4
2017-09-30T04:58:06.261Z,70.7
2017-09-30T04:59:07.252Z,71.0
2017-09-30T05:00:07.990Z,71.5
2017-09-30T05:01:08.742Z,75.2
2017-09-30T05:02:09.523Z,74.7
2017-09-30T05:03:10.321Z,78.0
2017-09-30T05:04:11.065Z,75.3
2017-09-30T05:05:11.834Z,75.3
2017-09-30T05:06:12.893Z,75.8
2017-09-30T05:07:13.622Z,73.9
2017-09-30T05:08:14.352Z,73.5
2017-09-30T05:09:15.076Z,70.8
2017-09-30T05:10:15.863Z,74.0
2017-09-30T05:11:17.083Z,66.9
2017-09-30T05:12:17.892Z,68.9
2017-09-30T05:13:18.696Z,70.8
2017-09-30T05:14:19.486Z,75.4
2017-09-30T05:15:20.299Z,75.7
2017-09-30T05:16:21.232Z,65.9
2017-09-30T05:17:21.972Z,72.4
2017-09-30T05:18:22.716Z,79.1
2017-09-30T05:19:23.449Z,72.6
2017-09-30T05:20:24.248Z,72.6
2017-09-30T05:21:25.383Z,77.2
2017-09-30T05:22:26.112Z,81.7
2017-09-30T05:23:26.923Z,89.2
2017-09-30T05:24:27.663Z,88.8
2017-09-30T05:25:28.402Z,85.0
2017-09-30T05:26:29.515Z,85.8
2017-09-30T05:27:30.292Z,79.4
2017-09-30T05:28:31.027Z,75.0
2017-09-30T05:29:31.764Z,68.9
2017-09-30T05:30:32.568Z,64.6
2017-09-30T05:31:33.574Z,67.0
2017-09-30T05:32:34.311Z,70.0
2017-09-30T05:33:35.042Z,69.7
2017-09-30T05:34:35.782Z,76.4
2017-09-30T05:35:36.522Z,94.1
2017-09-30T05:36:37.564Z,112.8
2017-09-30T05:37:38.371Z,99.9
2017-09-30T05:38:39.113Z,106.7
2017-09-30T05:39:39.868Z,72.9
2017-09-30T05:40:40.610Z,71.4
2017-09-30T05:41:41.819Z,67.4
2017-09-30T05:42:42.555Z,68.7
2017-09-30T05:43:43.341Z,78.5
2017-09-30T05:44:44.149Z,80.2
2017-09-30T05:45:44.881Z,74.8
2017-09-30T05:46:45.620Z,69.9
2017-09-30T05:47:46.429Z,69.1
2017-09-30T05:48:47.169Z,73.9
2017-09-30T05:49:48.134Z,76.7
2017-09-30T05:50:48.931Z,78.5
2017-09-30T05:51:49.745Z,78.1
2017-09-30T05:52:50.551Z,82.7
2017-09-30T05:53:51.312Z,89.2
2017-09-30T05:54:52.469Z,84.7
2017-09-30T05:55:53.201Z,84.0
2017-09-30T05:56:54.019Z,95.3
2017-09-30T05:57:54.768Z,96.8
2017-09-30T05:58:55.509Z,98.1
2017-09-30T05:59:56.603Z,104.0
2017-09-30T06:00:57.398Z,97.8
2017-09-30T06:01:58.138Z,92.3
2017-09-30T06:02:58.957Z,88.8
2017-09-30T06:03:59.751Z,89.8
2017-09-30T06:05:00.864Z,90.4
2017-09-30T06:06:01.670Z,103.9
2017-09-30T06:07:02.480Z,115.9
2017-09-30T06:08:03.288Z,97.2
2017-09-30T06:09:04.029Z,96.9
2017-09-30T06:10:04.775Z,99.9
2017-09-30T06:11:05.581Z,106.1
2017-09-30T06:12:06.319Z,106.5
2017-09-30T06:13:07.151Z,106.8
2017-09-30T06:14:08.248Z,94.6
2017-09-30T06:15:08.978Z,89.7
2017-09-30T06:16:09.715Z,82.0
2017-09-30T06:17:10.450Z,85.3
2017-09-30T06:18:11.271Z,86.1
2017-09-30T06:19:12.388Z,82.5
2017-09-30T06:20:13.148Z,90.4
2017-09-30T06:21:13.952Z,100.3
2017-09-30T06:22:14.748Z,98.0
2017-09-30T06:23:15.488Z,95.8
2017-09-30T06:24:16.647Z,88.8
2017-09-30T06:25:17.393Z,90.3
2017-09-30T06:26:18.188Z,95.3
2017-09-30T06:27:18.922Z,89.5
2017-09-30T06:28:19.663Z,88.1
2017-09-30T06:29:20.464Z,87.8
2017-09-30T06:30:21.239Z,84.8
2017-09-30T06:31:21.988Z,90.4
2017-09-30T06:32:22.738Z,90.4
2017-09-30T06:33:23.480Z,94.4
2017-09-30T06:34:24.593Z,78.0
2017-09-30T06:35:25.370Z,94.0
2017-09-30T06:36:26.182Z,83.7
2017-09-30T06:37:26.918Z,82.2
2017-09-30T06:38:27.683Z,75.8
2017-09-30T06:39:28.877Z,71.2
2017-09-30T06:40:29.623Z,76.6
2017-09-30T06:41:30.443Z,76.6
2017-09-30T06:42:31.230Z,72.4
2017-09-30T06:43:32.037Z,67.4
2017-09-30T06:44:33.129Z,70.8
2017-09-30T06:45:33.937Z,69.8
2017-09-30T06:46:34.677Z,71.1
2017-09-30T06:47:35.420Z,84.2
2017-09-30T06:48:36.235Z,77.4
2017-09-30T06:49:37.315Z,70.5
2017-09-30T06:50:38.060Z,69.6
2017-09-30T06:51:38.797Z,72.6
2017-09-30T06:52:39.604Z,82.0
2017-09-30T06:53:40.369Z,92.2
2017-09-30T06:54:41.319Z,110.3
2017-09-30T06:55:42.061Z,91.1
2017-09-30T06:56:42.830Z,91.3
2017-09-30T06:57:43.566Z,93.8
2017-09-30T06:58:44.389Z,88.7
2017-09-30T06:59:45.336Z,83.2
2017-09-30T07:00:46.144Z,88.2
2017-09-30T07:01:46.950Z,87.8
2017-09-30T07:02:47.677Z,86.7
2017-09-30T07:03:48.445Z,72.8
2017-09-30T07:04:49.538Z,66.7
2017-09-30T07:05:50.350Z,72.8
2017-09-30T07:06:51.111Z,67.9
2017-09-30T07:07:51.851Z,50.9
2017-09-30T07:08:52.603Z,45.7
2017-09-30T07:09:53.806Z,45.0
2017-09-30T07:10:54.550Z,43.7
2017-09-30T07:11:55.292Z,38.9
2017-09-30T07:12:56.033Z,39.8
2017-09-30T07:13:56.769Z,41.7
2017-09-30T07:14:57.501Z,42.8
2017-09-30T07:15:58.249Z,43.4
2017-09-30T07:16:59.025Z,46.2
2017-09-30T07:17:59.772Z,40.9
2017-09-30T07:19:00.811Z,45.8
2017-09-30T07:20:01.556Z,43.1
2017-09-30T07:21:02.360Z,46.6
2017-09-30T07:22:03.101Z,45.9
2017-09-30T07:23:03.845Z,43.4
2017-09-30T07:24:04.999Z,46.2
2017-09-30T07:25:05.772Z,47.5
2017-09-30T07:26:06.611Z,44.7
2017-09-30T07:27:07.351Z,47.6
2017-09-30T07:28:08.101Z,46.0
2017-09-30T07:29:08.844Z,49.5
2017-09-30T07:30:10.010Z,48.6
2017-09-30T07:31:10.770Z,51.0
2017-09-30T07:32:11.502Z,47.6
2017-09-30T07:33:12.327Z,45.7
2017-09-30T07:34:13.114Z,44.3
2017-09-30T07:35:14.273Z,44.9
2017-09-30T07:36:15.053Z,43.2
2017-09-30T07:37:15.791Z,42.9
2017-09-30T07:38:16.533Z,42.7
2017-09-30T07:39:17.281Z,41.2
2017-09-30T07:40:18.022Z,37.6
2017-09-30T07:41:18.771Z,36.6
2017-09-30T07:42:19.501Z,37.0
2017-09-30T07:43:20.242Z,32.0
2017-09-30T07:44:20.991Z,31.3
2017-09-30T07:45:22.271Z,32.9
2017-09-30T07:46:23.022Z,31.9
2017-09-30T07:47:23.819Z,33.0
2017-09-30T07:48:24.600Z,32.5
2017-09-30T07:49:25.343Z,31.3
2017-09-30T07:50:26.554Z,33.8
2017-09-30T07:51:27.286Z,33.2
2017-09-30T07:52:28.024Z,32.0
2017-09-30T07:53:28.795Z,30.6
2017-09-30T07:54:29.594Z,30.3
2017-09-30T07:55:30.642Z,28.1
2017-09-30T07:56:31.453Z,31.3
2017-09-30T07:57:32.201Z,36.0
2017-09-30T07:58:32.935Z,35.6
2017-09-30T07:59:33.747Z,44.3
2017-09-30T08:00:34.911Z,41.3
2017-09-30T08:01:35.663Z,47.1
2017-09-30T08:02:36.660Z,36.8
2017-09-30T08:03:38.098Z,38.4
2017-09-30T08:04:39.019Z,38.5
2017-09-30T08:05:40.072Z,40.3
2017-09-30T08:06:40.814Z,49.1
2017-09-30T08:07:41.617Z,48.4
2017-09-30T08:08:42.364Z,48.9
2017-09-30T08:09:43.193Z,52.1
2017-09-30T08:10:44.029Z,50.5
2017-09-30T08:11:44.872Z,49.4
2017-09-30T08:12:46.071Z,47.1
2017-09-30T08:13:46.861Z,46.0
2017-09-30T08:14:47.595Z,42.6
2017-09-30T08:15:48.337Z,44.2
2017-09-30T08:16:49.088Z,44.2
2017-09-30T08:17:50.133Z,48.5
2017-09-30T08:18:50.900Z,48.9
2017-09-30T08:19:51.633Z,45.6
2017-09-30T08:20:52.394Z,48.4
2017-09-30T08:21:53.137Z,49.7
2017-09-30T08:22:53.889Z,49.3
2017-09-30T08:23:54.621Z,49.8
2017-09-30T08:24:55.714Z,48.3
2017-09-30T08:25:56.463Z,47.5
2017-09-30T08:26:57.231Z,48.7
2017-09-30T08:27:57.978Z,51.7
2017-09-30T08:28:58.725Z,49.2
2017-09-30T08:29:59.891Z,49.8
2017-09-30T08:31:00.669Z,50.6
2017-09-30T08:32:01.411Z,48.1
2017-09-30T08:33:02.224Z,44.9
2017-09-30T08:34:03.038Z,34.8
2017-09-30T08:35:04.058Z,39.6
2017-09-30T08:36:04.810Z,36.1
2017-09-30T08:37:05.638Z,32.4
2017-09-30T08:38:06.428Z,32.9
2017-09-30T08:39:07.170Z,31.5
2017-09-30T08:40:08.310Z,26.6
2017-09-30T08:41:09.129Z,27.6
2017-09-30T08:42:09.927Z,28.3
2017-09-30T08:43:10.751Z,27.9
2017-09-30T08:44:11.550Z,24.6
2017-09-30T08:45:12.628Z,23.1
2017-09-30T08:46:13.376Z,22.7
2017-09-30T08:47:14.179Z,22.9
2017-09-30T08:48:14.915Z,20.2
2017-09-30T08:49:15.657Z,20.2
2017-09-30T08:50:16.391Z,18.6
2017-09-30T08:51:17.235Z,20.9
2017-09-30T08:52:18.890Z,18.6
2017-09-30T08:53:20.716Z,19.3
2017-09-30T08:54:21.392Z,19.6
2017-09-30T08:55:22.138Z,20.3
2017-09-30T08:56:22.874Z,20.6
2017-09-30T08:57:23.613Z,22.9
2017-09-30T08:58:24.448Z,25.8
2017-09-30T08:59:25.385Z,24.8
2017-09-30T09:00:26.177Z,25.0
2017-09-30T09:01:26.912Z,27.2
2017-09-30T09:02:27.648Z,27.5
2017-09-30T09:03:28.398Z,27.4
2017-09-30T09:04:29.309Z,28.8
2017-09-30T09:05:30.042Z,28.5
2017-09-30T09:06:30.772Z,29.7
2017-09-30T09:07:31.568Z,31.0
2017-09-30T09:08:32.307Z,31.8
2017-09-30T09:09:33.398Z,32.0
2017-09-30T09:10:34.157Z,200.9
2017-09-30T09:11:34.958Z,821.9
2017-09-30T09:12:35.698Z,368.5
2017-09-30T09:13:36.442Z,75.4
2017-09-30T09:14:37.434Z,192.7
2017-09-30T09:15:38.185Z,75.3
2017-09-30T09:16:38.932Z,54.3
2017-09-30T09:17:39.748Z,41.1
2017-09-30T09:18:40.492Z,38.4
2017-09-30T09:19:41.598Z,34.9
2017-09-30T09:20:42.377Z,35.2
2017-09-30T09:21:43.120Z,34.8
2017-09-30T09:22:43.914Z,35.3
2017-09-30T09:23:44.704Z,33.1
2017-09-30T09:24:45.786Z,34.3
2017-09-30T09:25:46.540Z,31.4
2017-09-30T09:26:47.340Z,32.2
2017-09-30T09:27:48.156Z,36.4
2017-09-30T09:28:48.888Z,38.0
2017-09-30T09:29:50.028Z,38.5
2017-09-30T09:30:50.762Z,39.6
2017-09-30T09:31:51.499Z,39.5
2017-09-30T09:32:52.318Z,38.8
2017-09-30T09:33:53.057Z,38.0
2017-09-30T09:34:54.199Z,41.0
2017-09-30T09:35:54.937Z,38.5
2017-09-30T09:36:55.698Z,39.8
2017-09-30T09:37:56.447Z,40.3
2017-09-30T09:38:57.194Z,40.7
2017-09-30T09:39:58.177Z,40.5
2017-09-30T09:40:58.921Z,38.1
2017-09-30T09:41:59.723Z,37.3
2017-09-30T09:43:00.463Z,38.1
2017-09-30T09:44:01.283Z,41.2
2017-09-30T09:45:02.440Z,40.2
2017-09-30T09:46:03.189Z,37.7
2017-09-30T09:47:04.012Z,39.2
2017-09-30T09:48:04.790Z,39.0
2017-09-30T09:49:05.544Z,39.6
2017-09-30T09:50:06.731Z,38.4
2017-09-30T09:51:07.469Z,40.7
2017-09-30T09:52:08.215Z,40.5
2017-09-30T09:53:09.009Z,38.6
2017-09-30T09:54:09.753Z,35.6
2017-09-30T09:55:10.560Z,31.9
2017-09-30T09:56:11.310Z,29.0
2017-09-30T09:57:12.087Z,23.9
2017-09-30T09:58:12.873Z,24.0
2017-09-30T09:59:13.679Z,22.5
2017-09-30T10:00:14.629Z,22.8
2017-09-30T10:01:15.370Z,22.4
2017-09-30T10:02:16.125Z,23.9
2017-09-30T10:03:16.879Z,25.6
2017-09-30T10:04:17.664Z,76.9
2017-09-30T10:05:18.614Z,35.8
2017-09-30T10:06:19.410Z,24.7
2017-09-30T10:07:20.158Z,20.0
2017-09-30T10:08:20.912Z,18.8
2017-09-30T10:09:21.721Z,20.0
2017-09-30T10:10:22.479Z,19.1
2017-09-30T10:11:23.271Z,16.4
2017-09-30T10:12:24.519Z,17.1
2017-09-30T10:13:25.438Z,20.4
2017-09-30T10:14:26.298Z,21.9
2017-09-30T10:15:27.058Z,22.6
2017-09-30T10:16:27.807Z,20.6
2017-09-30T10:17:28.612Z,19.6
2017-09-30T10:18:29.361Z,20.2
2017-09-30T10:19:31.715Z,17.7
2017-09-30T10:20:32.720Z,19.6
2017-09-30T10:21:33.531Z,23.6
2017-09-30T10:22:34.278Z,19.4
2017-09-30T10:23:35.105Z,35.8
2017-09-30T10:24:36.339Z,19.0
2017-09-30T10:25:37.132Z,16.6
2017-09-30T10:26:37.931Z,16.9
2017-09-30T10:27:38.693Z,18.8
2017-09-30T10:28:40.136Z,19.0
2017-09-30T10:29:41.248Z,18.6
2017-09-30T10:30:42.052Z,19.2
2017-09-30T10:31:42.810Z,19.1
2017-09-30T10:32:43.630Z,17.7
2017-09-30T10:33:44.382Z,17.7
2017-09-30T10:34:45.425Z,17.6
2017-09-30T10:35:46.232Z,19.6
2017-09-30T10:36:47.041Z,20.4
2017-09-30T10:37:47.780Z,20.2
2017-09-30T10:38:49.549Z,20.3
2017-09-30T10:39:50.870Z,20.1
2017-09-30T10:40:51.611Z,18.7
2017-09-30T10:41:52.349Z,19.7
2017-09-30T10:42:53.091Z,19.9
2017-09-30T10:43:53.832Z,19.7
2017-09-30T10:44:54.942Z,20.0
2017-09-30T10:45:55.735Z,19.7
2017-09-30T10:46:56.511Z,21.3
2017-09-30T10:47:57.280Z,21.2
2017-09-30T10:48:57.975Z,22.1
2017-09-30T10:49:59.070Z,21.9
2017-09-30T10:50:59.815Z,24.3
2017-09-30T10:52:00.601Z,23.4
2017-09-30T10:53:01.417Z,23.9
2017-09-30T10:54:02.224Z,24.2
2017-09-30T10:55:03.382Z,22.5
2017-09-30T10:56:04.211Z,20.8
2017-09-30T10:57:04.969Z,19.6
2017-09-30T10:58:05.722Z,18.7
2017-09-30T10:59:06.564Z,17.7
2017-09-30T11:00:07.589Z,17.8
2017-09-30T11:01:08.323Z,16.8
2017-09-30T11:02:09.060Z,17.3
2017-09-30T11:03:09.810Z,16.9
2017-09-30T11:04:10.556Z,17.3
2017-09-30T11:05:11.697Z,17.1
2017-09-30T11:06:12.438Z,17.6
2017-09-30T11:07:13.200Z,17.1
2017-09-30T11:08:14.005Z,17.0
2017-09-30T11:09:14.809Z,18.0
2017-09-30T11:10:15.950Z,18.3
2017-09-30T11:11:16.698Z,17.3
2017-09-30T11:12:17.474Z,18.0
2017-09-30T11:13:18.219Z,16.6
2017-09-30T11:14:18.962Z,15.8
2017-09-30T11:15:20.179Z,12.6
2017-09-30T11:16:20.970Z,12.6
2017-09-30T11:17:21.788Z,12.5
2017-09-30T11:18:22.530Z,13.3
2017-09-30T11:19:23.277Z,14.3
2017-09-30T11:20:24.259Z,14.1
2017-09-30T11:21:25.011Z,14.1
2017-09-30T11:22:25.813Z,14.2
2017-09-30T11:23:26.533Z,13.6
2017-09-30T11:24:27.348Z,12.8
2017-09-30T11:25:28.540Z,12.7
2017-09-30T11:26:29.360Z,14.2
2017-09-30T11:27:30.100Z,14.0
2017-09-30T11:28:30.871Z,13.4
2017-09-30T11:29:31.618Z,15.3
2017-09-30T11:30:32.711Z,14.3
2017-09-30T11:31:33.523Z,13.2
2017-09-30T11:32:34.309Z,11.8
2017-09-30T11:33:35.042Z,11.5
2017-09-30T11:34:35.769Z,12.0
2017-09-30T11:35:36.952Z,11.7
2017-09-30T11:36:37.739Z,12.2
2017-09-30T11:37:38.479Z,11.7
2017-09-30T11:38:39.221Z,11.2
2017-09-30T11:39:40.104Z,10.9
2017-09-30T11:40:41.266Z,10.8
2017-09-30T11:41:42.070Z,12.6
2017-09-30T11:42:42.814Z,12.0
2017-09-30T11:43:43.649Z,12.2
2017-09-30T11:44:44.450Z,11.1
2017-09-30T11:45:45.590Z,9.6
2017-09-30T11:46:46.337Z,10.3
2017-09-30T11:47:47.119Z,8.6
2017-09-30T11:48:47.929Z,8.3
2017-09-30T11:49:48.682Z,7.6
2017-09-30T11:50:49.629Z,7.5
2017-09-30T11:51:50.371Z,7.6
2017-09-30T11:52:51.122Z,8.1
2017-09-30T11:53:51.930Z,7.2
2017-09-30T11:54:52.672Z,7.4
2017-09-30T11:55:53.778Z,6.2
2017-09-30T11:56:54.520Z,5.1
2017-09-30T11:57:55.272Z,4.9
2017-09-30T11:58:56.088Z,3.8
2017-09-30T11:59:56.831Z,4.0
2017-09-30T12:00:57.840Z,3.6
2017-09-30T12:01:58.582Z,3.4
2017-09-30T12:02:59.390Z,3.2
2017-09-30T12:04:00.136Z,3.4
2017-09-30T12:05:00.930Z,4.1
2017-09-30T12:06:01.968Z,4.0
2017-09-30T12:07:02.776Z,5.6
2017-09-30T12:08:03.569Z,4.6
2017-09-30T12:09:04.306Z,3.7
2017-09-30T12:10:05.121Z,3.4
2017-09-30T12:11:06.221Z,3.5
2017-09-30T12:12:06.939Z,3.2
2017-09-30T12:13:07.690Z,3.3
2017-09-30T12:14:08.499Z,3.9
2017-09-30T12:15:09.233Z,4.3
2017-09-30T12:16:10.338Z,5.0
2017-09-30T12:17:11.108Z,4.8
2017-09-30T12:18:11.884Z,4.6
2017-09-30T12:19:12.620Z,4.5
2017-09-30T12:20:13.370Z,5.1
2017-09-30T12:21:14.511Z,4.8
2017-09-30T12:22:15.251Z,5.5
2017-09-30T12:23:16.069Z,5.4
2017-09-30T12:24:16.813Z,4.9
2017-09-30T12:25:17.601Z,5.4
2017-09-30T12:26:18.642Z,7.2
2017-09-30T12:27:19.411Z,7.1
2017-09-30T12:28:20.220Z,6.9
2017-09-30T12:29:20.967Z,6.9
2017-09-30T12:30:21.696Z,6.1
2017-09-30T12:31:22.674Z,6.4
2017-09-30T12:32:23.421Z,5.8
2017-09-30T12:33:24.179Z,6.5
2017-09-30T12:34:24.916Z,6.0
2017-09-30T12:35:25.655Z,7.2
2017-09-30T12:36:26.890Z,6.5
2017-09-30T12:37:27.630Z,6.6
2017-09-30T12:38:28.376Z,6.8
2017-09-30T12:39:29.099Z,6.7
2017-09-30T12:40:29.859Z,6.5
2017-09-30T12:41:31.038Z,6.4
2017-09-30T12:42:32.624Z,6.1
2017-09-30T12:43:33.386Z,6.5
2017-09-30T12:44:34.203Z,5.9
2017-09-30T12:45:35.958Z,5.7
2017-09-30T12:46:37.370Z,5.8
2017-09-30T12:47:38.154Z,6.6
2017-09-30T12:48:38.944Z,6.2
2017-09-30T12:49:39.768Z,6.5
2017-09-30T12:50:40.560Z,7.8
2017-09-30T12:51:41.704Z,7.3
2017-09-30T12:52:42.497Z,7.7
2017-09-30T12:53:43.297Z,7.6
2017-09-30T12:54:44.048Z,8.2
2017-09-30T12:55:44.839Z,8.0
2017-09-30T12:56:45.881Z,9.5
2017-09-30T12:57:46.731Z,8.3
2017-09-30T12:58:47.471Z,8.0
2017-09-30T12:59:48.290Z,7.6
2017-09-30T13:00:49.031Z,6.3
2017-09-30T13:01:50.114Z,6.0
2017-09-30T13:02:50.892Z,6.9
2017-09-30T13:03:51.923Z,5.9
2017-09-30T13:04:52.759Z,6.6
2017-09-30T13:05:53.486Z,6.3
2017-09-30T13:06:56.154Z,7.3
2017-09-30T13:07:57.117Z,6.6
2017-09-30T13:08:57.909Z,7.9
2017-09-30T13:09:58.714Z,8.4
2017-09-30T13:10:59.450Z,8.5
2017-09-30T13:12:00.678Z,8.0
2017-09-30T13:13:01.479Z,8.7
2017-09-30T13:14:02.538Z,9.0
2017-09-30T13:15:03.219Z,8.7
2017-09-30T13:16:03.999Z,9.2
2017-09-30T13:17:05.097Z,10.5
2017-09-30T13:18:05.846Z,9.0
2017-09-30T13:19:06.579Z,9.5
2017-09-30T13:20:07.369Z,7.1
2017-09-30T13:21:08.160Z,7.7
2017-09-30T13:22:09.190Z,8.8
2017-09-30T13:23:10.968Z,9.4
2017-09-30T13:24:11.979Z,8.3
2017-09-30T13:25:12.791Z,8.6
2017-09-30T13:26:13.600Z,9.4
2017-09-30T13:27:14.698Z,9.0
2017-09-30T13:28:15.431Z,9.7
2017-09-30T13:29:16.244Z,9.3
2017-09-30T13:30:17.067Z,10.8
2017-09-30T13:31:17.877Z,12.1